Time;durP1;ratioP1;P1;durP2;ratioP2;P2;SDS_P1;SDS_P2;PMS_P1;PMS_P2;Temp;Humidity;BMP_temperature;BMP_pressure;BME280_temperature;BME280_humidity;BME280_pressure;Samples;Min_cycle;Max_cycle;Signal;HPM_P1;HPM_P2
2021/08/08 00:01:11;;;;;;;3.73;2.40;;;17.00;1.00;;;;;;5034541;28;20490;-79
2021/08/08 00:03:46;;;;;;;2.17;2.00;;;16.80;1.00;;;;;;5034535;28;20825;-79
2021/08/08 00:09:33;;;;;;;4.70;2.33;;;16.80;1.00;;;;;;5033861;28;20357;-79
2021/08/08 00:15:21;;;;;;;2.93;2.07;;;16.80;1.00;;;;;;5034853;28;20615;-80
2021/08/08 00:21:08;;;;;;;2.80;1.90;;;16.80;1.00;;;;;;5034226;28;20224;-80
2021/08/08 00:30:28;;;;;;;2.13;1.83;;;16.70;1.00;;;;;;5034524;28;20499;-80
2021/08/08 00:32:54;;;;;;;2.10;1.90;;;16.70;1.00;;;;;;5034122;28;20855;-79
2021/08/08 00:35:42;;;;;;;1.90;1.80;;;16.70;1.00;;;;;;5034115;28;20431;-80
2021/08/08 00:38:09;;;;;;;1.77;1.67;;;16.60;1.00;;;;;;5033694;28;20887;-80
2021/08/08 00:40:35;;;;;;;2.90;1.83;;;16.60;1.00;;;;;;5027382;28;20447;-80
2021/08/08 00:43:01;;;;;;;4.37;1.60;;;16.60;1.00;;;;;;5012433;28;20408;-80
2021/08/08 00:48:48;;;;;;;2.37;1.63;;;16.70;1.00;;;;;;5030654;28;20656;-79
2021/08/08 00:54:36;;;;;;;5.20;1.80;;;16.60;1.00;;;;;;5033460;28;20211;-79
2021/08/08 01:00:24;;;;;;;2.63;1.60;;;16.50;1.00;;;;;;5033890;28;20265;-80
2021/08/08 01:06:20;;;;;;;1.53;1.27;;;16.50;1.00;;;;;;5021249;28;20508;-79
2021/08/08 01:08:51;;;;;;;2.80;1.53;;;16.50;1.00;;;;;;5030021;28;20385;-79
2021/08/08 01:11:19;;;;;;;5.10;1.37;;;16.40;1.00;;;;;;5033406;28;20468;-79
2021/08/08 01:17:09;;;;;;;4.00;1.50;;;16.40;1.00;;;;;;5033500;28;20400;-80
2021/08/08 01:19:58;;;;;;;4.50;1.60;;;16.30;1.00;;;;;;5016071;28;20522;-80
2021/08/08 01:22:36;;;;;;;2.43;1.70;;;16.30;1.00;;;;;;5013882;28;20425;-80
2021/08/08 01:35:07;;;;;;;1.40;1.40;;;16.40;1.00;;;;;;5033282;28;20461;-80
2021/08/08 01:37:52;;;;;;;2.40;1.50;;;16.30;1.00;;;;;;5032619;28;20417;-79
2021/08/08 01:43:44;;;;;;;3.90;1.53;;;16.20;1.00;;;;;;5013590;28;20463;-80
2021/08/08 01:46:52;;;;;;;2.90;1.50;;;16.90;1.00;;;;;;5020398;28;20505;-79
2021/08/08 01:49:58;;;;;;;2.70;1.60;;;16.20;1.00;;;;;;5032848;28;20437;-80
2021/08/08 01:55:45;;;;;;;2.03;1.60;;;16.20;1.00;;;;;;5032984;28;20460;-79
2021/08/08 01:58:46;;;;;;;4.47;1.60;;;16.20;1.00;;;;;;5032906;28;20482;-79
2021/08/08 02:01:11;;;;;;;4.20;1.50;;;16.10;1.00;;;;;;5033566;28;20643;-80
2021/08/08 02:03:52;;;;;;;2.00;1.23;;;16.10;1.00;;;;;;5033129;28;20427;-80
2021/08/08 02:06:22;;;;;;;3.50;1.67;;;16.10;1.00;;;;;;5032957;28;20187;-80
2021/08/08 02:18:53;;;;;;;3.20;1.87;;;16.00;1.00;;;;;;5032784;28;20386;-79
2021/08/08 02:24:41;;;;;;;2.73;1.70;;;15.90;1.00;;;;;;5032532;28;20160;-79
2021/08/08 02:30:29;;;;;;;3.93;1.63;;;15.90;1.00;;;;;;5033427;28;20175;-80
2021/08/08 02:32:58;;;;;;;6.70;1.97;;;15.90;1.00;;;;;;5035952;28;20489;-79
2021/08/08 02:38:59;;;;;;;1.70;1.60;;;;;;;;;;5035893;28;20466;-79
2021/08/08 02:44:46;;;;;;;4.30;2.00;;;15.80;1.00;;;;;;5026842;28;20392;-79
2021/08/08 02:47:12;;;;;;;4.73;2.20;;;15.80;1.00;;;;;;5036142;28;20402;-79
2021/08/08 02:53:40;;;;;;;2.07;1.73;;;15.80;1.00;;;;;;5035682;28;20195;-79
2021/08/08 02:56:58;;;;;;;2.00;1.80;;;15.80;1.00;;;;;;5035779;28;20498;-79
2021/08/08 03:06:13;;;;;;;11.17;2.13;;;15.80;1.00;;;;;;5035666;28;20407;-80
2021/08/08 03:12:00;;;;;;;3.87;2.50;;;15.80;1.00;;;;;;5035588;28;20785;-80
2021/08/08 03:17:48;;;;;;;4.43;2.27;;;15.80;1.00;;;;;;5022260;28;20276;-80
2021/08/08 03:20:34;;;;;;;4.07;2.20;;;15.80;1.00;;;;;;5036111;28;20526;-80
2021/08/08 03:26:29;;;;;;;3.67;1.93;;;15.80;1.00;;;;;;5035516;28;20333;-79
2021/08/08 03:32:16;;;;;;;3.17;2.43;;;16.00;1.00;;;;;;5035566;28;20901;-80
2021/08/08 03:38:58;;;;;;;5.53;2.23;;;16.20;1.00;;;;;;5034600;28;20230;-80
2021/08/08 03:45:22;;;;;;;2.77;2.13;;;16.20;1.00;;;;;;5026181;28;20426;-80
2021/08/08 03:47:48;;;;;;;2.20;2.00;;;16.20;1.00;;;;;;5017165;28;20427;-80
2021/08/08 03:56:57;;;;;;;8.27;1.87;;;16.20;1.00;;;;;;5034859;28;20398;-79
2021/08/08 04:02:52;;;;;;;3.77;1.73;;;16.20;1.00;;;;;;5035181;28;20188;-81
2021/08/08 04:05:46;;;;;;;6.93;2.07;;;16.10;1.00;;;;;;5034275;28;20502;-77
2021/08/08 04:08:57;;;;;;;4.20;1.80;;;16.10;1.00;;;;;;5034593;28;20485;-80
2021/08/08 04:11:40;;;;;;;1.83;1.63;;;16.00;1.00;;;;;;5034677;28;20434;-79
2021/08/08 04:17:52;;;;;;;1.57;1.47;;;16.10;1.00;;;;;;5034419;28;20432;-79
2021/08/08 04:23:39;;;;;;;4.03;1.70;;;16.20;1.00;;;;;;5034224;28;20357;-79
2021/08/08 04:29:27;;;;;;;5.33;1.80;;;16.20;1.00;;;;;;5033849;28;20203;-79
2021/08/08 04:32:23;;;;;;;3.10;2.50;;;16.10;1.00;;;;;;5034723;28;20400;-80
2021/08/08 04:38:11;;;;;;;3.23;1.50;;;16.10;1.00;;;;;;5033743;28;20824;-79
2021/08/08 04:40:36;;;;;;;2.03;1.77;;;16.10;1.00;;;;;;5031054;28;20466;-79
2021/08/08 04:43:34;;;;;;;4.00;1.30;;;16.00;1.00;;;;;;5022975;28;20191;-79
2021/08/08 04:49:21;;;;;;;7.50;1.53;;;16.00;1.00;;;;;;5033626;28;20418;-79
2021/08/08 04:58:31;;;;;;;1.90;1.30;;;15.80;1.00;;;;;;5033572;28;20371;-79
2021/08/08 05:01:04;;;;;;;3.10;1.50;;;15.80;1.00;;;;;;5034149;28;20437;-77
2021/08/08 05:03:40;;;;;;;3.23;1.60;;;15.70;1.00;;;;;;5033871;28;20644;-76
2021/08/08 05:06:28;;;;;;;4.13;1.33;;;15.70;1.00;;;;;;5033386;28;20425;-76
2021/08/08 05:09:04;;;;;;;7.47;2.27;;;15.70;1.00;;;;;;5033179;28;20405;-76
2021/08/08 05:12:16;;;;;;;2.87;1.20;;;15.70;1.00;;;;;;5033644;28;20429;-76
2021/08/08 05:14:52;;;;;;;8.13;1.50;;;15.70;1.00;;;;;;5013829;28;20392;-76
2021/08/08 05:20:46;;;;;;;10.43;1.43;;;15.80;1.00;;;;;;5029725;28;20817;-76
2021/08/08 05:23:28;;;;;;;3.97;1.40;;;15.80;1.00;;;;;;5013754;28;20852;-76
2021/08/08 05:26:04;;;;;;;2.57;1.50;;;15.90;1.00;;;;;;5015680;28;20727;-76
2021/08/08 05:28:42;;;;;;;2.60;1.40;;;15.80;1.00;;;;;;5033320;28;20395;-76
2021/08/08 05:31:16;;;;;;;1.53;1.43;;;15.90;1.00;;;;;;5033843;28;20520;-76
2021/08/08 05:34:10;;;;;;;2.60;1.30;;;15.90;1.00;;;;;;5033347;28;20422;-77
2021/08/08 05:40:04;;;;;;;1.33;1.23;;;16.00;1.00;;;;;;5030582;28;20536;-77
2021/08/08 05:46:04;;;;;;;18.30;2.30;;;16.10;1.00;;;;;;5013424;28;20450;-76
2021/08/08 05:49:07;;;;;;;2.10;1.50;;;16.10;1.00;;;;;;5012537;28;20784;-80
2021/08/08 05:51:52;;;;;;;1.60;1.50;;;16.10;1.00;;;;;;5033105;28;20414;-79
2021/08/08 05:57:39;;;;;;;3.13;1.37;;;16.40;1.00;;;;;;5033191;28;20461;-80
2021/08/08 06:00:46;;;;;;;3.70;1.60;;;16.80;1.00;;;;;;5032478;28;20562;-79
2021/08/08 06:03:22;;;;;;;4.90;1.40;;;16.80;1.00;;;;;;5026591;28;20213;-80
2021/08/08 06:05:52;;;;;;;5.17;1.30;;;16.80;1.00;;;;;;5013292;28;20887;-79
2021/08/08 06:08:18;;;;;;;1.60;1.50;;;17.50;1.00;;;;;;5023370;28;20944;-79
2021/08/08 06:10:43;;;;;;;4.00;1.70;;;16.90;1.00;;;;;;5036571;28;20427;-79
2021/08/08 06:13:10;;;;;;;3.00;1.77;;;17.00;1.00;;;;;;5025827;28;20193;-79
2021/08/08 06:15:40;;;;;;;5.37;1.67;;;17.00;1.00;;;;;;5036367;28;20650;-79
2021/08/08 06:18:28;;;;;;;2.87;1.50;;;17.10;1.00;;;;;;5027686;28;20458;-79
2021/08/08 06:21:22;;;;;;;2.80;1.53;;;17.00;1.00;;;;;;5027844;28;20465;-80
2021/08/08 06:24:04;;;;;;;6.93;2.17;;;17.00;1.00;;;;;;5036644;28;20395;-80
2021/08/08 06:29:52;;;;;;;6.57;2.43;;;17.10;1.00;;;;;;5016736;28;20419;-80
2021/08/08 06:32:28;;;;;;;4.50;1.93;;;17.30;1.00;;;;;;5028156;28;20898;-79
2021/08/08 06:35:05;;;;;;;5.80;2.30;;;17.30;1.00;;;;;;5035843;28;20169;-79
2021/08/08 06:38:04;;;;;;;2.27;1.80;;;17.40;1.00;;;;;;5035950;28;20411;-79
2021/08/08 06:40:34;;;;;;;3.20;1.70;;;17.40;1.00;;;;;;5036265;28;20468;-79
2021/08/08 06:43:16;;;;;;;7.47;1.90;;;17.50;1.00;;;;;;5016417;28;20408;-79
2021/08/08 06:52:25;;;;;;;4.60;2.00;;;17.60;1.00;;;;;;5035943;28;20924;-80
2021/08/08 06:55:10;;;;;;;9.67;2.13;;;17.60;1.00;;;;;;5035967;28;20416;-80
2021/08/08 07:01:40;;;;;;;15.87;2.60;;;17.80;1.00;;;;;;5023064;28;20493;-80
2021/08/08 07:04:34;;;;;;;3.80;1.63;;;17.90;1.00;;;;;;5036468;28;20401;-80
2021/08/08 07:06:59;;;;;;;4.03;1.90;;;18.10;1.00;;;;;;5035599;28;20508;-83
2021/08/08 07:12:47;;;;;;;4.10;1.87;;;18.30;1.00;;;;;;5034949;28;20192;-79
2021/08/08 07:21:59;;;;;;;8.00;2.33;;;18.60;1.00;;;;;;5035408;28;20476;-78
2021/08/08 07:24:35;;;;;;;4.40;2.20;;;18.70;1.00;;;;;;5034789;28;20471;-79
2021/08/08 07:27:04;;;;;;;3.97;1.97;;;18.90;1.00;;;;;;5034586;28;20401;-79
2021/08/08 07:36:14;;;;;;;3.63;1.67;;;19.50;1.00;;;;;;5015541;28;20448;-79
2021/08/08 07:38:46;;;;;;;2.30;1.73;;;19.50;1.00;;;;;;5016317;28;20427;-79
2021/08/08 07:41:12;;;;;;;10.30;1.80;;;19.50;1.00;;;;;;5019622;28;20474;-79
2021/08/08 07:43:58;;;;;;;4.77;1.90;;;19.40;1.00;;;;;;5024379;28;20750;-79
2021/08/08 07:46:52;;;;;;;9.63;2.23;;;19.30;1.00;;;;;;5034937;28;20171;-79
2021/08/08 07:49:40;;;;;;;2.90;1.97;;;19.00;1.00;;;;;;5035135;28;20524;-79
2021/08/08 07:52:52;;;;;;;8.87;1.90;;;19.00;1.00;;;;;;5035545;28;20433;-79
2021/08/08 07:55:55;;;;;;;8.60;1.80;;;19.00;1.00;;;;;;5035365;28;20816;-79
2021/08/08 07:58:46;;;;;;;5.30;2.10;;;19.00;1.00;;;;;;5015156;28;20395;-79
2021/08/08 08:01:12;;;;;;;3.70;2.30;;;19.20;1.00;;;;;;5025125;28;20437;-79
2021/08/08 08:07:10;;;;;;;3.63;1.87;;;19.30;1.00;;;;;;5033847;28;20222;-78
2021/08/08 08:09:40;;;;;;;2.13;1.90;;;19.50;1.00;;;;;;5034391;28;20418;-78
2021/08/08 08:12:22;;;;;;;5.17;1.70;;;19.50;1.00;;;;;;5034668;28;20406;-78
2021/08/08 08:15:28;;;;;;;3.77;1.80;;;19.70;1.00;;;;;;5034322;28;20414;-78
2021/08/08 08:18:05;;;;;;;8.00;2.20;;;19.70;1.00;;;;;;5034317;28;20414;-78
2021/08/08 08:21:10;;;;;;;4.00;2.07;;;19.80;1.00;;;;;;5033359;28;20473;-78
2021/08/08 08:24:22;;;;;;;2.40;1.70;;;20.00;1.00;;;;;;5034488;28;20434;-78
2021/08/08 08:27:05;;;;;;;4.40;1.50;;;20.20;1.00;;;;;;5014732;28;20427;-78
2021/08/08 08:37:10;;;;;;;2.87;1.33;;;20.00;1.00;;;;;;5034434;28;20415;-77
2021/08/08 08:39:35;;;;;;;6.43;1.70;;;20.00;1.00;;;;;;5025183;28;20448;-77
2021/08/08 08:42:22;;;;;;;4.43;1.70;;;20.20;1.00;;;;;;5027962;28;20795;-78
2021/08/08 08:45:22;;;;;;;3.97;2.03;;;20.10;1.00;;;;;;5033480;28;20181;-78
2021/08/08 08:47:59;;;;;;;2.00;1.30;;;20.20;1.00;;;;;;5033635;28;20450;-78
2021/08/08 08:50:26;;;;;;;3.53;1.90;;;20.40;1.00;;;;;;5017900;28;21173;-78
2021/08/08 08:52:53;;;;;;;15.67;2.13;;;20.40;1.00;;;;;;5030451;28;20938;-78
2021/08/08 08:55:52;;;;;;;6.13;1.70;;;20.50;1.00;;;;;;5033368;28;20422;-78
2021/08/08 08:58:17;;;;;;;2.87;1.70;;;20.80;1.00;;;;;;5033691;28;20394;-78
2021/08/08 09:00:52;;;;;;;2.90;1.40;;;20.80;1.00;;;;;;5033637;28;21022;-77
2021/08/08 09:03:46;;;;;;;1.87;1.50;;;20.90;1.00;;;;;;5033785;28;20192;-79
2021/08/08 09:06:23;;;;;;;5.93;1.60;;;21.10;1.00;;;;;;5032586;28;20422;-78
2021/08/08 09:09:16;;;;;;;4.53;1.63;;;21.30;1.00;;;;;;5025660;28;20424;-81
2021/08/08 09:11:44;;;;;;;1.70;1.30;;;21.50;1.00;;;;;;5032953;28;20427;-82
2021/08/08 09:14:40;;;;;;;5.10;1.67;;;21.70;1.00;;;;;;5030002;28;20433;-81
2021/08/08 09:17:23;;;;;;;7.27;1.20;;;21.80;1.00;;;;;;5032178;28;20399;-81
2021/08/08 09:23:11;;;;;;;5.57;1.47;;;21.90;1.00;;;;;;5033473;28;20369;-80
2021/08/08 09:25:57;;;;;;;5.73;1.60;;;21.90;1.00;;;;;;5031915;28;20475;-80
2021/08/08 09:28:46;;;;;;;2.97;1.50;;;22.00;1.00;;;;;;5033302;28;20402;-80
2021/08/08 09:31:22;;;;;;;4.50;1.80;;;22.00;1.00;;;;;;5031765;28;20450;-80
2021/08/08 09:33:52;;;;;;;3.07;1.30;;;22.00;1.00;;;;;;5033199;28;20441;-79
2021/08/08 09:36:46;;;;;;;5.40;1.50;;;22.20;1.00;;;;;;5019988;28;20490;-80
2021/08/08 09:39:43;;;;;;;4.23;1.30;;;22.20;1.00;;;;;;5020328;28;20498;-80
2021/08/08 09:42:17;;;;;;;3.40;1.60;;;22.20;1.00;;;;;;4957027;29;21010;-81
2021/08/08 09:45:22;;;;;;;3.63;1.30;;;22.00;1.00;;;;;;4957088;29;20412;-80
2021/08/08 09:48:22;;;;;;;3.80;1.43;;;21.90;1.00;;;;;;4957163;29;20418;-80
2021/08/08 09:51:06;;;;;;;4.63;2.23;;;21.90;1.00;;;;;;4941342;29;20522;-84
2021/08/08 09:54:22;;;;;;;3.90;1.20;;;21.90;1.00;;;;;;4957236;29;20953;-83
2021/08/08 09:56:57;;;;;;;5.63;1.30;;;21.80;1.00;;;;;;4957854;29;20404;-88
2021/08/08 10:02:45;;;;;;;2.10;1.03;;;21.70;1.00;;;;;;4957935;29;21045;-87
2021/08/08 10:08:59;;;;;;;4.47;1.33;;;21.80;1.00;;;;;;4956716;29;20220;-79
2021/08/08 10:11:35;;;;;;;8.03;1.70;;;21.80;1.00;;;;;;4933692;29;20438;-81
2021/08/08 10:14:02;;;;;;;6.20;1.30;;;22.10;1.00;;;;;;4940330;29;20522;-82
2021/08/08 10:16:42;;;;;;;3.43;1.53;;;22.10;1.00;;;;;;4954501;29;20475;-82
2021/08/08 10:19:22;;;;;;;4.70;1.40;;;22.30;1.00;;;;;;5013253;28;20429;-82
2021/08/08 10:21:48;;;;;;;2.17;1.40;;;22.40;1.00;;;;;;5036651;28;20885;-82
2021/08/08 10:24:35;;;;;;;4.20;1.37;;;22.30;1.00;;;;;;5036555;28;20400;-81
2021/08/08 10:27:52;;;;;;;4.87;1.40;;;22.30;1.00;;;;;;5036664;28;20390;-82
2021/08/08 10:30:17;;;;;;;4.70;1.37;;;22.40;1.00;;;;;;5030302;28;20442;-82
2021/08/08 10:36:23;;;;;;;6.57;1.60;;;22.80;1.00;;;;;;5016995;28;20186;-83
2021/08/08 10:39:37;;;;;;;3.00;1.33;;;23.00;1.00;;;;;;5025739;28;20494;-83
2021/08/08 10:42:18;;;;;;;4.67;1.00;;;23.00;1.00;;;;;;4955929;29;20450;-84
2021/08/08 10:44:53;;;;;;;2.07;1.30;;;22.60;1.00;;;;;;4971693;28;20922;-83
2021/08/08 10:47:53;;;;;;;4.00;1.80;;;22.60;1.00;;;;;;4974994;28;20505;-83
2021/08/08 10:50:52;;;;;;;3.97;1.20;;;22.60;1.00;;;;;;4975452;28;20505;-83
2021/08/08 10:53:57;;;;;;;3.17;1.70;;;22.50;1.00;;;;;;4974452;28;20403;-83
2021/08/08 10:57:16;;;;;;;2.30;1.30;;;22.40;1.00;;;;;;4958267;28;20420;-83
2021/08/08 11:00:22;;;;;;;8.43;2.10;;;22.70;1.00;;;;;;4958694;28;20942;-83
2021/08/08 11:03:13;;;;;;;3.10;1.73;;;22.80;1.00;;;;;;4971391;28;20435;-77
2021/08/08 11:06:04;;;;;;;5.27;1.60;;;22.80;1.00;;;;;;4975070;28;20832;-78
2021/08/08 11:08:53;;;;;;;6.20;1.67;;;22.80;1.00;;;;;;4975272;28;21022;-78
2021/08/08 11:11:40;;;;;;;2.43;1.20;;;22.90;1.00;;;;;;4952398;29;20426;-79
2021/08/08 11:14:28;;;;;;;3.87;1.20;;;23.10;1.00;;;;;;4956367;28;20964;-80
2021/08/08 11:17:46;;;;;;;3.17;1.40;;;23.20;1.00;;;;;;5001180;28;20747;-81
2021/08/08 11:20:46;;;;;;;1.30;1.07;;;23.40;1.00;;;;;;5033879;28;20542;-77
2021/08/08 11:23:27;;;;;;;2.27;1.10;;;23.70;1.00;;;;;;5021757;28;20404;-77
2021/08/08 11:25:52;;;;;;;2.27;1.03;;;23.90;1.00;;;;;;5035714;28;20389;-77
2021/08/08 11:28:23;;;;;;;2.83;1.10;;;24.00;1.00;;;;;;5034908;28;20825;-77
2021/08/08 11:30:49;;;;;;;1.90;1.23;;;24.20;1.00;;;;;;5035380;28;20213;-76
2021/08/08 11:33:16;;;;;;;3.13;1.17;;;24.30;1.00;;;;;;5035096;28;20442;-76
2021/08/08 11:36:04;;;;;;;7.03;1.13;;;24.40;1.00;;;;;;5027662;28;20183;-78
2021/08/08 11:38:34;;;;;;;2.90;1.00;;;24.40;1.00;;;;;;5032430;28;20429;-77
2021/08/08 11:41:23;;;;;;;4.93;0.90;;;24.20;1.00;;;;;;5033825;28;20468;-79
2021/08/08 11:44:10;;;;;;;1.73;1.03;;;24.30;1.00;;;;;;5035314;28;20435;-77
2021/08/08 11:46:48;;;;;;;1.40;1.00;;;24.30;1.00;;;;;;5035204;28;20437;-77
2021/08/08 11:49:43;;;;;;;2.50;1.27;;;24.40;1.00;;;;;;5034859;28;20421;-78
2021/08/08 11:52:18;;;;;;;3.43;1.40;;;24.20;1.00;;;;;;5015483;28;20481;-79
2021/08/08 11:55:14;;;;;;;5.03;1.10;;;24.20;1.00;;;;;;5015311;28;20497;-80
2021/08/08 11:58:04;;;;;;;2.70;1.20;;;24.30;1.00;;;;;;5029825;28;20778;-79
2021/08/08 12:00:52;;;;;;;2.20;1.40;;;24.40;1.00;;;;;;5034812;28;20465;-79
2021/08/08 12:03:31;;;;;;;2.37;1.30;;;24.20;1.00;;;;;;5021292;28;20450;-79
2021/08/08 12:05:58;;;;;;;4.73;1.53;;;24.20;1.00;;;;;;5021865;28;20807;-77
2021/08/08 12:08:47;;;;;;;3.30;1.43;;;24.20;1.00;;;;;;5034573;28;20428;-78
2021/08/08 12:11:13;;;;;;;4.70;1.60;;;24.30;1.00;;;;;;5034169;28;20533;-78
2021/08/08 12:13:39;;;;;;;9.93;2.17;;;24.50;1.00;;;;;;5034093;28;20926;-78
2021/08/08 12:16:16;;;;;;;6.20;1.60;;;24.50;1.00;;;;;;5034002;28;20167;-78
2021/08/08 12:19:10;;;;;;;4.37;1.60;;;24.10;1.00;;;;;;5033551;28;20667;-78
2021/08/08 12:22:03;;;;;;;3.00;1.47;;;23.80;1.00;;;;;;5034741;28;20449;-79
2021/08/08 12:24:43;;;;;;;4.90;1.50;;;23.80;1.00;;;;;;5033120;28;20791;-79
2021/08/08 12:27:29;;;;;;;2.57;1.63;;;24.30;1.00;;;;;;5033979;28;20507;-80
2021/08/08 12:30:24;;;;;;;6.93;1.10;;;24.00;1.00;;;;;;5032919;28;20505;-79
2021/08/08 12:33:22;;;;;;;2.70;1.20;;;23.90;1.00;;;;;;5033791;28;20471;-79
2021/08/08 12:36:11;;;;;;;1.63;1.40;;;23.90;1.00;;;;;;5034180;28;20429;-79
2021/08/08 12:38:58;;;;;;;2.77;1.60;;;23.60;1.00;;;;;;5033818;28;20768;-79
2021/08/08 12:41:52;;;;;;;2.90;1.20;;;23.50;1.00;;;;;;5033932;28;20551;-79
2021/08/08 12:44:37;;;;;;;1.20;1.10;;;23.40;1.00;;;;;;5033998;28;20447;-80
2021/08/08 12:47:26;;;;;;;2.93;1.53;;;23.40;1.00;;;;;;5033741;28;20811;-80
2021/08/08 12:50:34;;;;;;;5.43;1.40;;;23.60;1.00;;;;;;5032867;28;20433;-80
2021/08/08 12:53:06;;;;;;;6.47;1.60;;;23.70;1.00;;;;;;5033981;28;20492;-77
2021/08/08 12:55:33;;;;;;;2.83;1.07;;;23.60;1.00;;;;;;5033907;28;20393;-78
2021/08/08 12:58:22;;;;;;;3.33;1.40;;;23.50;1.00;;;;;;5033787;28;20468;-77
2021/08/08 13:00:52;;;;;;;1.57;1.47;;;23.50;1.00;;;;;;5033814;28;20464;-78
2021/08/08 13:03:22;;;;;;;3.47;1.77;;;23.70;1.00;;;;;;5027539;28;20436;-77
2021/08/08 13:06:28;;;;;;;2.40;1.33;;;23.70;1.00;;;;;;5013979;28;20869;-78
2021/08/08 13:12:24;;;;;;;2.73;1.47;;;23.30;1.00;;;;;;5033034;28;20466;-79
2021/08/08 13:14:52;;;;;;;1.93;1.40;;;23.30;1.00;;;;;;5033058;28;20482;-79
2021/08/08 13:17:23;;;;;;;6.63;1.60;;;23.40;1.00;;;;;;5033307;28;20997;-80
2021/08/08 13:19:52;;;;;;;1.53;1.20;;;23.80;1.00;;;;;;5032095;28;20762;-79
2021/08/08 13:22:28;;;;;;;7.20;1.13;;;23.80;1.00;;;;;;5033663;28;20420;-78
2021/08/08 13:24:54;;;;;;;1.83;1.53;;;23.70;1.00;;;;;;5033484;28;20420;-78
2021/08/08 13:27:22;;;;;;;2.70;1.80;;;23.70;1.00;;;;;;5032946;28;20431;-77
2021/08/08 13:29:52;;;;;;;4.13;1.53;;;23.40;1.00;;;;;;5033330;28;20296;-77
2021/08/08 13:32:22;;;;;;;5.03;1.77;;;23.30;1.00;;;;;;5033429;28;20845;-78
2021/08/08 13:34:52;;;;;;;3.87;1.47;;;23.20;1.00;;;;;;5032955;28;20543;-77
2021/08/08 13:37:22;;;;;;;2.40;1.43;;;22.80;1.00;;;;;;5033342;28;20959;-78
2021/08/08 13:39:52;;;;;;;2.60;1.57;;;22.60;1.00;;;;;;5032947;28;20457;-78
2021/08/08 13:42:22;;;;;;;5.07;1.50;;;22.30;1.00;;;;;;5033225;28;20411;-78
2021/08/08 13:44:48;;;;;;;4.30;1.00;;;21.50;1.00;;;;;;5033015;28;20420;-78
2021/08/08 13:47:22;;;;;;;1.43;0.70;;;21.50;1.00;;;;;;5033355;28;20394;-78
2021/08/08 13:50:22;;;;;;;4.37;1.10;;;20.10;1.00;;;;;;5033102;28;20200;-78
2021/08/08 13:52:48;;;;;;;1.10;0.90;;;19.90;1.00;;;;;;5013831;28;20411;-78
2021/08/08 13:55:16;;;;;;;2.50;1.00;;;19.00;1.00;;;;;;5030328;28;20422;-78
2021/08/08 13:57:52;;;;;;;3.30;1.30;;;18.10;1.00;;;;;;5033280;28;20402;-78
2021/08/08 14:00:22;;;;;;;1.63;1.17;;;18.00;1.00;;;;;;5033293;28;20551;-77
2021/08/08 14:02:52;;;;;;;1.30;1.17;;;17.80;1.00;;;;;;5029428;28;20943;-77
2021/08/08 14:05:52;;;;;;;2.60;1.30;;;17.80;1.00;;;;;;5028533;28;20440;-78
2021/08/08 14:08:22;;;;;;;1.30;1.20;;;18.00;1.00;;;;;;5018568;28;20423;-78
2021/08/08 14:10:52;;;;;;;3.20;1.50;;;18.30;1.00;;;;;;5025517;28;20392;-78
2021/08/08 14:13:52;;;;;;;4.70;1.80;;;18.90;1.00;;;;;;5032935;28;20426;-78
2021/08/08 14:16:22;;;;;;;1.40;1.20;;;19.40;1.00;;;;;;5029743;28;20426;-78
2021/08/08 14:18:53;;;;;;;3.33;1.07;;;19.90;1.00;;;;;;5032751;28;20430;-78
2021/08/08 14:21:22;;;;;;;3.70;1.50;;;20.00;1.00;;;;;;5032616;28;20451;-78
2021/08/08 14:23:52;;;;;;;2.90;1.40;;;20.30;1.00;;;;;;5033177;28;20456;-79
2021/08/08 14:26:52;;;;;;;2.50;1.23;;;20.30;1.00;;;;;;5031422;28;20490;-79
2021/08/08 14:29:22;;;;;;;3.80;1.30;;;20.50;1.00;;;;;;5036266;28;20877;-79
2021/08/08 14:31:52;;;;;;;2.90;1.47;;;20.60;1.00;;;;;;5036206;28;20426;-79
2021/08/08 14:34:28;;;;;;;1.67;1.10;;;20.70;1.00;;;;;;5036222;28;20427;-79
2021/08/08 14:40:16;;;;;;;2.53;1.00;;;20.90;1.00;;;;;;5035836;28;20475;-78
2021/08/08 14:42:52;;;;;;;2.10;1.27;;;21.10;1.00;;;;;;5036282;28;20923;-78
2021/08/08 14:45:52;;;;;;;3.10;1.20;;;21.00;1.00;;;;;;5035874;28;20417;-78
2021/08/08 14:48:22;;;;;;;1.07;0.70;;;21.30;1.00;;;;;;5035942;28;20421;-78
2021/08/08 14:50:52;;;;;;;4.80;1.10;;;21.40;1.00;;;;;;5025341;28;20988;-78
2021/08/08 14:53:58;;;;;;;5.50;1.10;;;21.40;1.00;;;;;;5036438;28;20397;-78
2021/08/08 15:00:22;;;;;;;1.50;0.97;;;21.70;1.00;;;;;;5035626;28;20427;-78
2021/08/08 15:03:22;;;;;;;1.00;0.80;;;21.90;1.00;;;;;;5034735;28;20952;-78
2021/08/08 15:09:09;;;;;;;1.93;0.80;;;22.80;1.00;;;;;;5016348;28;20403;-79
2021/08/08 15:12:22;;;;;;;1.00;0.90;;;23.00;1.00;;;;;;5038710;28;20478;-80
2021/08/08 15:14:47;;;;;;;3.43;0.90;;;23.00;1.00;;;;;;5020029;28;20170;-79
2021/08/08 15:17:22;;;;;;;1.53;0.73;;;22.90;1.00;;;;;;5035525;28;20443;-79
2021/08/08 15:20:16;;;;;;;1.47;0.70;;;22.60;1.00;;;;;;5035503;28;20156;-79
2021/08/08 15:26:22;;;;;;;6.63;0.87;;;21.90;1.00;;;;;;5029282;28;20812;-79
2021/08/08 15:29:22;;;;;;;1.77;1.00;;;21.80;1.00;;;;;;5035138;28;20408;-79
2021/08/08 15:32:22;;;;;;;1.60;0.97;;;21.70;1.00;;;;;;5035152;28;20512;-79
2021/08/08 15:38:28;;;;;;;3.60;1.20;;;21.30;1.00;;;;;;5035099;28;20405;-78
2021/08/08 15:41:22;;;;;;;1.53;1.00;;;20.90;1.00;;;;;;5034730;28;20468;-78
2021/08/08 15:44:34;;;;;;;1.40;1.17;;;20.70;1.00;;;;;;5035058;28;20405;-78
2021/08/08 15:47:11;;;;;;;4.10;1.30;;;20.60;1.00;;;;;;5031352;28;20443;-78
2021/08/08 15:49:58;;;;;;;4.50;1.00;;;21.40;1.00;;;;;;5034813;28;20449;-78
2021/08/08 15:52:24;;;;;;;6.57;1.00;;;21.60;1.00;;;;;;5034741;28;20412;-78
2021/08/08 15:55:22;;;;;;;1.30;1.20;;;22.90;1.00;;;;;;5035147;28;20445;-78
2021/08/08 15:57:52;;;;;;;5.93;0.70;;;23.10;1.00;;;;;;5034801;28;20167;-78
2021/08/08 16:00:28;;;;;;;2.10;0.97;;;24.80;1.00;;;;;;5034851;28;20461;-78
2021/08/08 16:03:28;;;;;;;2.97;0.93;;;27.80;1.00;;;;;;5032207;28;20498;-78
2021/08/08 16:09:16;;;;;;;2.03;1.17;;;29.70;1.00;;;;;;5015039;28;20437;-78
2021/08/08 16:11:52;;;;;;;1.57;0.90;;;30.10;1.00;;;;;;5027649;28;20865;-78
2021/08/08 16:14:22;;;;;;;1.00;0.73;;;31.70;1.00;;;;;;5034703;28;20251;-78
2021/08/08 16:17:22;;;;;;;3.80;0.90;;;32.60;1.00;;;;;;5034351;28;20423;-78
2021/08/08 16:19:48;;;;;;;0.80;0.70;;;33.50;1.00;;;;;;5034534;28;20860;-78
2021/08/08 16:22:22;;;;;;;2.47;0.83;;;33.40;1.00;;;;;;5034333;28;20423;-78
2021/08/08 16:28:22;;;;;;;4.60;0.90;;;33.30;1.00;;;;;;5014049;28;20423;-79
2021/08/08 16:30:58;;;;;;;2.40;1.00;;;33.20;1.00;;;;;;5015672;28;20404;-80
2021/08/08 16:40:52;;;;;;;0.60;0.50;;;34.40;1.00;;;;;;5034131;28;20489;-80
2021/08/08 16:43:22;;;;;;;0.93;0.77;;;34.10;1.00;;;;;;5014212;28;20431;-80
2021/08/08 16:45:53;;;;;;;1.33;0.90;;;;;;;;;;5018160;28;21033;-80
2021/08/08 16:52:22;;;;;;;0.83;0.60;;;35.30;1.00;;;;;;5033084;28;20457;-80
2021/08/08 16:54:52;;;;;;;1.00;0.90;;;35.70;1.00;;;;;;5034035;28;20427;-77
2021/08/08 16:57:22;;;;;;;0.90;0.70;;;35.80;1.00;;;;;;5033665;28;20470;-78
2021/08/08 16:59:53;;;;;;;2.57;0.87;;;35.50;1.00;;;;;;5014230;28;20416;-78
2021/08/08 17:02:22;;;;;;;2.00;0.70;;;35.30;1.00;;;;;;5025526;28;20431;-78
2021/08/08 17:05:22;;;;;;;0.80;0.70;;;35.00;1.00;;;;;;5022113;28;20432;-78
2021/08/08 17:08:22;;;;;;;1.50;0.73;;;34.40;1.00;;;;;;5033466;28;20489;-78
2021/08/08 17:10:52;;;;;;;1.97;0.53;;;34.20;1.00;;;;;;5014195;28;20409;-78
2021/08/08 17:13:22;;;;;;;1.23;0.63;;;34.50;1.00;;;;;;5032796;28;20873;-78
2021/08/08 17:15:52;;;;;;;1.87;0.70;;;34.60;1.00;;;;;;5033594;28;20919;-78
2021/08/08 17:18:22;;;;;;;0.80;0.67;;;33.60;1.00;;;;;;5033392;28;20455;-78
2021/08/08 17:21:04;;;;;;;5.40;0.60;;;33.00;1.00;;;;;;5033518;28;20537;-77
2021/08/08 17:23:40;;;;;;;1.37;0.60;;;31.60;1.00;;;;;;5033275;28;20819;-77
2021/08/08 17:26:22;;;;;;;0.70;0.60;;;30.30;1.00;;;;;;5033350;28;20424;-80
2021/08/08 17:28:53;;;;;;;1.00;0.70;;;29.00;1.00;;;;;;5032912;28;20852;-79
2021/08/08 17:31:23;;;;;;;1.10;0.70;;;26.90;1.00;;;;;;5033147;28;20812;-80
2021/08/08 17:33:52;;;;;;;3.27;0.70;;;26.90;1.00;;;;;;5033174;28;20401;-79
2021/08/08 17:36:22;;;;;;;1.10;0.90;;;25.90;1.00;;;;;;5033134;28;20450;-79
2021/08/08 17:39:10;;;;;;;2.20;0.90;;;24.40;1.00;;;;;;5033315;28;20980;-77
2021/08/08 17:41:58;;;;;;;1.20;0.90;;;24.10;1.00;;;;;;5033159;28;20453;-77
2021/08/08 17:44:40;;;;;;;7.03;1.40;;;22.90;1.00;;;;;;5033259;28;20407;-78
2021/08/08 17:47:46;;;;;;;2.23;1.00;;;22.80;1.00;;;;;;5033335;28;20403;-77
2021/08/08 17:50:22;;;;;;;3.53;1.03;;;22.20;1.00;;;;;;5032724;28;20425;-77
2021/08/08 17:52:52;;;;;;;3.33;1.43;;;21.90;1.00;;;;;;5032823;28;20519;-77
2021/08/08 17:55:25;;;;;;;0.80;0.80;;;21.50;1.00;;;;;;5033035;28;20628;-77
2021/08/08 17:57:52;;;;;;;1.33;0.97;;;21.20;1.00;;;;;;5033219;28;20413;-77
2021/08/08 18:00:22;;;;;;;1.57;1.00;;;20.90;1.00;;;;;;5033164;28;20987;-79
2021/08/08 18:02:52;;;;;;;1.20;0.80;;;20.90;1.00;;;;;;5035243;28;20428;-77
2021/08/08 18:05:23;;;;;;;0.80;0.80;;;20.70;1.00;;;;;;5026898;28;20448;-77
2021/08/08 18:07:52;;;;;;;1.70;1.07;;;20.50;1.00;;;;;;5034829;28;20516;-77
2021/08/08 18:10:18;;;;;;;1.10;1.00;;;20.40;1.00;;;;;;5036847;28;20430;-79